sensor_id;sensor_type;location;lat;lon;timestamp;temperature;humidity
356;DHT22;62514;48.112;11.566;2024-03-29T00:00:46;3.70;1.00
356;DHT22;62514;48.112;11.566;2024-03-29T00:03:12;3.70;1.00
356;DHT22;62514;48.112;11.566;2024-03-29T00:05:38;3.70;1.00
356;DHT22;62514;48.112;11.566;2024-03-29T00:08:05;3.70;1.00
356;DHT22;62514;48.112;11.566;2024-03-29T00:10:32;3.70;1.00
356;DHT22;62514;48.112;11.566;2024-03-29T00:13:00;3.70;9.30
356;DHT22;62514;48.112;11.566;2024-03-29T00:15:27;3.60;1.00
356;DHT22;62514;48.112;11.566;2024-03-29T00:17:53;3.60;8.30
356;DHT22;62514;48.112;11.566;2024-03-29T00:20:19;3.60;99.90
356;DHT22;62514;48.112;11.566;2024-03-29T00:22:47;3.60;99.90
356;DHT22;62514;48.112;11.566;2024-03-29T00:25:13;3.50;99.90
356;DHT22;62514;48.112;11.566;2024-03-29T00:27:39;3.50;99.90
356;DHT22;62514;48.112;11.566;2024-03-29T00:30:05;3.50;1.00
356;DHT22;62514;48.112;11.566;2024-03-29T00:32:32;3.50;1.00
356;DHT22;62514;48.112;11.566;2024-03-29T00:34:58;3.40;1.00
356;DHT22;62514;48.112;11.566;2024-03-29T00:37:24;3.40;1.00
356;DHT22;62514;48.112;11.566;2024-03-29T00:39:50;3.50;1.00
356;DHT22;62514;48.112;11.566;2024-03-29T00:42:16;3.40;1.00
356;DHT22;62514;48.112;11.566;2024-03-29T00:44:44;3.40;1.00
356;DHT22;62514;48.112;11.566;2024-03-29T00:47:10;3.30;1.00
356;DHT22;62514;48.112;11.566;2024-03-29T00:49:36;3.30;79.10
356;DHT22;62514;48.112;11.566;2024-03-29T00:52:03;3.30;78.20
356;DHT22;62514;48.112;11.566;2024-03-29T00:54:32;3.30;99.90
356;DHT22;62514;48.112;11.566;2024-03-29T00:56:59;3.30;99.90
356;DHT22;62514;48.112;11.566;2024-03-29T00:59:25;3.30;78.20
356;DHT22;62514;48.112;11.566;2024-03-29T01:01:51;3.30;83.50
356;DHT22;62514;48.112;11.566;2024-03-29T01:04:17;3.20;99.90
356;DHT22;62514;48.112;11.566;2024-03-29T01:06:44;3.20;99.90
356;DHT22;62514;48.112;11.566;2024-03-29T01:09:10;3.20;99.90
356;DHT22;62514;48.112;11.566;2024-03-29T01:11:38;3.10;99.90
356;DHT22;62514;48.112;11.566;2024-03-29T01:14:08;3.10;1.00
356;DHT22;62514;48.112;11.566;2024-03-29T01:16:34;3.20;1.00
356;DHT22;62514;48.112;11.566;2024-03-29T01:19:00;3.20;1.00
356;DHT22;62514;48.112;11.566;2024-03-29T01:21:26;3.20;1.00
356;DHT22;62514;48.112;11.566;2024-03-29T01:23:52;3.20;1.00
356;DHT22;62514;48.112;11.566;2024-03-29T01:26:19;3.20;99.90
356;DHT22;62514;48.112;11.566;2024-03-29T01:28:45;3.20;1.00
356;DHT22;62514;48.112;11.566;2024-03-29T01:31:11;3.20;1.00
356;DHT22;62514;48.112;11.566;2024-03-29T01:33:38;3.20;99.90
356;DHT22;62514;48.112;11.566;2024-03-29T01:36:09;3.20;99.90
356;DHT22;62514;48.112;11.566;2024-03-29T01:38:35;3.20;99.90
356;DHT22;62514;48.112;11.566;2024-03-29T01:41:02;3.10;99.90
356;DHT22;62514;48.112;11.566;2024-03-29T01:43:28;3.10;99.90
356;DHT22;62514;48.112;11.566;2024-03-29T01:45:55;3.10;99.90
356;DHT22;62514;48.112;11.566;2024-03-29T01:48:22;3.10;99.90
356;DHT22;62514;48.112;11.566;2024-03-29T01:50:49;3.10;99.90
356;DHT22;62514;48.112;11.566;2024-03-29T01:53:16;3.10;99.90
356;DHT22;62514;48.112;11.566;2024-03-29T01:55:44;3.10;99.90
356;DHT22;62514;48.112;11.566;2024-03-29T01:58:11;3.10;99.90
356;DHT22;62514;48.112;11.566;2024-03-29T02:00:41;3.10;99.90
356;DHT22;62514;48.112;11.566;2024-03-29T02:03:07;3.10;99.90
356;DHT22;62514;48.112;11.566;2024-03-29T02:05:43;3.10;99.90
356;DHT22;62514;48.112;11.566;2024-03-29T02:08:10;3.10;99.90
356;DHT22;62514;48.112;11.566;2024-03-29T02:10:37;3.00;99.90
356;DHT22;62514;48.112;11.566;2024-03-29T02:13:04;3.00;99.90
356;DHT22;62514;48.112;11.566;2024-03-29T02:15:30;3.10;46.00
356;DHT22;62514;48.112;11.566;2024-03-29T02:17:57;3.10;1.00
356;DHT22;62514;48.112;11.566;2024-03-29T02:20:24;3.10;1.00
356;DHT22;62514;48.112;11.566;2024-03-29T02:25:28;3.10;1.00
356;DHT22;62514;48.112;11.566;2024-03-29T02:27:55;3.10;1.00
356;DHT22;62514;48.112;11.566;2024-03-29T02:30:22;3.10;99.90
356;DHT22;62514;48.112;11.566;2024-03-29T02:32:48;3.10;1.00
356;DHT22;62514;48.112;11.566;2024-03-29T02:35:14;3.10;1.00
356;DHT22;62514;48.112;11.566;2024-03-29T02:37:40;3.00;1.00
356;DHT22;62514;48.112;11.566;2024-03-29T02:40:06;3.00;1.00
356;DHT22;62514;48.112;11.566;2024-03-29T02:42:35;3.10;1.00
356;DHT22;62514;48.112;11.566;2024-03-29T02:45:03;3.10;99.90
356;DHT22;62514;48.112;11.566;2024-03-29T02:47:29;3.20;99.90
356;DHT22;62514;48.112;11.566;2024-03-29T02:49:55;3.20;99.90
356;DHT22;62514;48.112;11.566;2024-03-29T02:52:27;3.20;99.90
356;DHT22;62514;48.112;11.566;2024-03-29T02:54:54;3.20;99.90
356;DHT22;62514;48.112;11.566;2024-03-29T02:57:20;3.10;99.90
356;DHT22;62514;48.112;11.566;2024-03-29T02:59:47;3.10;99.90
356;DHT22;62514;48.112;11.566;2024-03-29T03:02:13;3.10;99.90
356;DHT22;62514;48.112;11.566;2024-03-29T03:04:39;3.10;99.90
356;DHT22;62514;48.112;11.566;2024-03-29T03:07:05;3.00;99.90
356;DHT22;62514;48.112;11.566;2024-03-29T03:09:49;3.00;1.00
356;DHT22;62514;48.112;11.566;2024-03-29T03:12:34;3.00;1.00
356;DHT22;62514;48.112;11.566;2024-03-29T03:15:00;2.90;99.90
356;DHT22;62514;48.112;11.566;2024-03-29T03:17:27;2.90;99.90
356;DHT22;62514;48.112;11.566;2024-03-29T03:19:53;2.90;99.90
356;DHT22;62514;48.112;11.566;2024-03-29T03:22:19;2.90;99.90
356;DHT22;62514;48.112;11.566;2024-03-29T03:24:45;2.90;99.90
356;DHT22;62514;48.112;11.566;2024-03-29T03:27:11;2.90;99.90
356;DHT22;62514;48.112;11.566;2024-03-29T03:29:38;3.00;1.00
356;DHT22;62514;48.112;11.566;2024-03-29T03:32:05;3.00;1.00
356;DHT22;62514;48.112;11.566;2024-03-29T03:34:32;3.00;1.00
356;DHT22;62514;48.112;11.566;2024-03-29T03:36:58;3.00;1.00
356;DHT22;62514;48.112;11.566;2024-03-29T03:39:25;3.10;99.90
356;DHT22;62514;48.112;11.566;2024-03-29T03:41:51;3.10;99.90
356;DHT22;62514;48.112;11.566;2024-03-29T03:44:17;3.10;99.90
356;DHT22;62514;48.112;11.566;2024-03-29T03:46:43;3.10;78.10
356;DHT22;62514;48.112;11.566;2024-03-29T03:49:09;3.10;78.00
356;DHT22;62514;48.112;11.566;2024-03-29T03:51:35;3.10;91.70
356;DHT22;62514;48.112;11.566;2024-03-29T03:54:01;3.10;99.90
356;DHT22;62514;48.112;11.566;2024-03-29T03:56:27;3.10;99.90
356;DHT22;62514;48.112;11.566;2024-03-29T03:58:53;3.10;99.90
356;DHT22;62514;48.112;11.566;2024-03-29T04:01:19;3.10;79.00
356;DHT22;62514;48.112;11.566;2024-03-29T04:03:46;3.20;78.30
356;DHT22;62514;48.112;11.566;2024-03-29T04:06:12;3.20;78.30
356;DHT22;62514;48.112;11.566;2024-03-29T04:08:38;3.20;1.00
356;DHT22;62514;48.112;11.566;2024-03-29T04:11:04;3.20;1.00
356;DHT22;62514;48.112;11.566;2024-03-29T04:13:30;3.30;1.00
356;DHT22;62514;48.112;11.566;2024-03-29T04:16:06;3.30;99.90
356;DHT22;62514;48.112;11.566;2024-03-29T04:18:33;3.30;99.90
356;DHT22;62514;48.112;11.566;2024-03-29T04:21:03;3.20;1.00
356;DHT22;62514;48.112;11.566;2024-03-29T04:23:31;3.30;99.90
356;DHT22;62514;48.112;11.566;2024-03-29T04:25:59;3.30;1.00
356;DHT22;62514;48.112;11.566;2024-03-29T04:28:26;3.30;1.00
356;DHT22;62514;48.112;11.566;2024-03-29T04:30:55;3.30;1.00
356;DHT22;62514;48.112;11.566;2024-03-29T04:33:21;3.20;1.00
356;DHT22;62514;48.112;11.566;2024-03-29T04:36:02;3.30;1.00
356;DHT22;62514;48.112;11.566;2024-03-29T04:38:31;3.20;36.50
356;DHT22;62514;48.112;11.566;2024-03-29T04:40:58;3.30;78.10
356;DHT22;62514;48.112;11.566;2024-03-29T04:43:26;3.30;78.40
356;DHT22;62514;48.112;11.566;2024-03-29T04:46:03;3.30;79.60
356;DHT22;62514;48.112;11.566;2024-03-29T04:48:32;3.30;78.50
356;DHT22;62514;48.112;11.566;2024-03-29T04:50:58;3.30;99.90
356;DHT22;62514;48.112;11.566;2024-03-29T04:53:24;3.30;78.50
356;DHT22;62514;48.112;11.566;2024-03-29T04:55:57;3.30;1.00
356;DHT22;62514;48.112;11.566;2024-03-29T04:58:27;3.30;1.00
356;DHT22;62514;48.112;11.566;2024-03-29T05:00:54;3.30;79.30
356;DHT22;62514;48.112;11.566;2024-03-29T05:03:21;3.30;99.90
356;DHT22;62514;48.112;11.566;2024-03-29T05:05:49;3.30;77.80
356;DHT22;62514;48.112;11.566;2024-03-29T05:08:15;3.30;78.20
356;DHT22;62514;48.112;11.566;2024-03-29T05:10:42;3.20;78.30
356;DHT22;62514;48.112;11.566;2024-03-29T05:13:08;3.20;20.00
356;DHT22;62514;48.112;11.566;2024-03-29T05:15:34;3.30;1.00
356;DHT22;62514;48.112;11.566;2024-03-29T05:18:00;3.30;1.00
356;DHT22;62514;48.112;11.566;2024-03-29T05:20:26;3.40;1.00
356;DHT22;62514;48.112;11.566;2024-03-29T05:22:52;3.50;99.90
356;DHT22;62514;48.112;11.566;2024-03-29T05:25:18;3.50;99.90
356;DHT22;62514;48.112;11.566;2024-03-29T05:27:44;3.50;99.90
356;DHT22;62514;48.112;11.566;2024-03-29T05:30:10;3.50;99.90
356;DHT22;62514;48.112;11.566;2024-03-29T05:32:36;3.60;99.90
356;DHT22;62514;48.112;11.566;2024-03-29T05:35:02;3.60;1.00
356;DHT22;62514;48.112;11.566;2024-03-29T05:37:28;3.60;1.00
356;DHT22;62514;48.112;11.566;2024-03-29T05:39:54;3.70;1.00
356;DHT22;62514;48.112;11.566;2024-03-29T05:42:31;3.90;99.90
356;DHT22;62514;48.112;11.566;2024-03-29T05:44:57;4.00;39.80
356;DHT22;62514;48.112;11.566;2024-03-29T05:47:23;4.20;1.00
356;DHT22;62514;48.112;11.566;2024-03-29T05:49:50;4.40;99.90
356;DHT22;62514;48.112;11.566;2024-03-29T05:52:16;4.50;99.90
356;DHT22;62514;48.112;11.566;2024-03-29T05:54:44;4.60;29.40
356;DHT22;62514;48.112;11.566;2024-03-29T05:57:10;4.60;17.40
356;DHT22;62514;48.112;11.566;2024-03-29T05:59:36;4.60;1.00
356;DHT22;62514;48.112;11.566;2024-03-29T06:02:04;4.70;38.20
356;DHT22;62514;48.112;11.566;2024-03-29T06:04:30;4.70;35.50
356;DHT22;62514;48.112;11.566;2024-03-29T06:07:03;4.70;99.90
356;DHT22;62514;48.112;11.566;2024-03-29T06:09:29;4.70;99.90
356;DHT22;62514;48.112;11.566;2024-03-29T06:11:56;4.70;84.10
356;DHT22;62514;48.112;11.566;2024-03-29T06:14:23;4.70;99.90
356;DHT22;62514;48.112;11.566;2024-03-29T06:17:08;4.70;99.90
356;DHT22;62514;48.112;11.566;2024-03-29T06:19:53;4.90;99.90
356;DHT22;62514;48.112;11.566;2024-03-29T06:22:24;5.00;1.00
356;DHT22;62514;48.112;11.566;2024-03-29T06:24:53;5.10;1.00
356;DHT22;62514;48.112;11.566;2024-03-29T06:27:20;5.40;1.00
356;DHT22;62514;48.112;11.566;2024-03-29T06:29:49;5.60;99.90
356;DHT22;62514;48.112;11.566;2024-03-29T06:32:15;5.80;99.90
356;DHT22;62514;48.112;11.566;2024-03-29T06:34:47;6.00;99.90
356;DHT22;62514;48.112;11.566;2024-03-29T06:37:14;6.20;99.90
356;DHT22;62514;48.112;11.566;2024-03-29T06:39:40;6.40;72.40
356;DHT22;62514;48.112;11.566;2024-03-29T06:42:09;6.50;99.90
356;DHT22;62514;48.112;11.566;2024-03-29T06:44:36;6.60;99.90
356;DHT22;62514;48.112;11.566;2024-03-29T06:47:05;6.70;99.90
356;DHT22;62514;48.112;11.566;2024-03-29T06:49:34;6.80;99.90
356;DHT22;62514;48.112;11.566;2024-03-29T06:52:00;6.90;99.90
356;DHT22;62514;48.112;11.566;2024-03-29T06:58:09;7.60;99.90
356;DHT22;62514;48.112;11.566;2024-03-29T07:00:37;8.00;1.00
356;DHT22;62514;48.112;11.566;2024-03-29T07:03:03;9.50;1.00
356;DHT22;62514;48.112;11.566;2024-03-29T07:06:26;11.00;42.50
356;DHT22;62514;48.112;11.566;2024-03-29T07:08:53;10.60;99.90
356;DHT22;62514;48.112;11.566;2024-03-29T07:11:19;10.00;99.90
356;DHT22;62514;48.112;11.566;2024-03-29T07:13:46;9.60;99.90
356;DHT22;62514;48.112;11.566;2024-03-29T07:16:15;9.50;99.90
356;DHT22;62514;48.112;11.566;2024-03-29T07:18:44;9.40;99.90
356;DHT22;62514;48.112;11.566;2024-03-29T07:21:14;9.40;99.90
356;DHT22;62514;48.112;11.566;2024-03-29T07:24:29;9.50;99.90
356;DHT22;62514;48.112;11.566;2024-03-29T07:27:08;9.70;99.90
356;DHT22;62514;48.112;11.566;2024-03-29T07:29:36;9.80;99.90
356;DHT22;62514;48.112;11.566;2024-03-29T07:32:09;10.00;99.90
356;DHT22;62514;48.112;11.566;2024-03-29T07:34:36;10.20;99.90
356;DHT22;62514;48.112;11.566;2024-03-29T07:37:10;10.40;99.90
356;DHT22;62514;48.112;11.566;2024-03-29T07:39:41;10.70;99.90
356;DHT22;62514;48.112;11.566;2024-03-29T07:42:08;11.30;99.90
356;DHT22;62514;48.112;11.566;2024-03-29T07:44:59;12.10;99.90
356;DHT22;62514;48.112;11.566;2024-03-29T07:47:40;13.00;99.90
356;DHT22;62514;48.112;11.566;2024-03-29T07:53:35;15.60;99.90
356;DHT22;62514;48.112;11.566;2024-03-29T07:56:32;16.10;99.90
356;DHT22;62514;48.112;11.566;2024-03-29T07:59:21;16.00;99.90
356;DHT22;62514;48.112;11.566;2024-03-29T08:01:49;14.90;99.90
356;DHT22;62514;48.112;11.566;2024-03-29T08:04:46;14.70;99.90
356;DHT22;62514;48.112;11.566;2024-03-29T08:07:16;14.50;99.90
356;DHT22;62514;48.112;11.566;2024-03-29T08:09:48;14.40;99.90
356;DHT22;62514;48.112;11.566;2024-03-29T08:12:30;14.50;99.90
356;DHT22;62514;48.112;11.566;2024-03-29T08:14:56;14.60;99.90
356;DHT22;62514;48.112;11.566;2024-03-29T08:17:22;14.70;99.90
356;DHT22;62514;48.112;11.566;2024-03-29T08:19:48;14.70;99.90
356;DHT22;62514;48.112;11.566;2024-03-29T08:22:14;14.80;99.90
356;DHT22;62514;48.112;11.566;2024-03-29T08:24:40;14.80;99.90
356;DHT22;62514;48.112;11.566;2024-03-29T08:27:06;15.00;99.90
356;DHT22;62514;48.112;11.566;2024-03-29T08:29:32;15.30;99.90
356;DHT22;62514;48.112;11.566;2024-03-29T08:31:58;15.60;99.90
356;DHT22;62514;48.112;11.566;2024-03-29T08:34:24;16.00;99.90
356;DHT22;62514;48.112;11.566;2024-03-29T08:36:50;16.40;99.90
356;DHT22;62514;48.112;11.566;2024-03-29T08:39:16;16.60;99.90
356;DHT22;62514;48.112;11.566;2024-03-29T08:41:42;16.90;99.90
356;DHT22;62514;48.112;11.566;2024-03-29T08:44:11;17.10;99.90
356;DHT22;62514;48.112;11.566;2024-03-29T08:46:37;17.20;99.90
356;DHT22;62514;48.112;11.566;2024-03-29T08:49:03;17.50;1.00
356;DHT22;62514;48.112;11.566;2024-03-29T08:51:29;17.60;1.00
356;DHT22;62514;48.112;11.566;2024-03-29T08:53:55;17.90;1.00
356;DHT22;62514;48.112;11.566;2024-03-29T08:56:23;18.20;1.00
356;DHT22;62514;48.112;11.566;2024-03-29T08:58:49;18.40;1.00
356;DHT22;62514;48.112;11.566;2024-03-29T09:01:15;18.40;1.00
356;DHT22;62514;48.112;11.566;2024-03-29T09:03:41;18.60;1.00
356;DHT22;62514;48.112;11.566;2024-03-29T09:06:07;18.80;1.00
356;DHT22;62514;48.112;11.566;2024-03-29T09:08:33;18.90;1.00
356;DHT22;62514;48.112;11.566;2024-03-29T09:11:00;18.90;1.00
356;DHT22;62514;48.112;11.566;2024-03-29T09:13:26;19.00;1.00
356;DHT22;62514;48.112;11.566;2024-03-29T09:15:53;19.10;1.00
356;DHT22;62514;48.112;11.566;2024-03-29T09:18:19;18.80;1.00
356;DHT22;62514;48.112;11.566;2024-03-29T09:21:00;19.00;1.00
356;DHT22;62514;48.112;11.566;2024-03-29T09:23:38;19.20;1.00
356;DHT22;62514;48.112;11.566;2024-03-29T09:26:07;19.40;1.00
356;DHT22;62514;48.112;11.566;2024-03-29T09:28:33;19.60;1.00
356;DHT22;62514;48.112;11.566;2024-03-29T09:31:02;20.00;1.00
356;DHT22;62514;48.112;11.566;2024-03-29T09:33:29;20.30;1.00
356;DHT22;62514;48.112;11.566;2024-03-29T09:35:55;20.60;1.00
356;DHT22;62514;48.112;11.566;2024-03-29T09:38:21;20.60;1.00
356;DHT22;62514;48.112;11.566;2024-03-29T09:43:38;21.40;1.00
356;DHT22;62514;48.112;11.566;2024-03-29T09:46:08;21.20;1.00
356;DHT22;62514;48.112;11.566;2024-03-29T09:48:37;20.80;1.00
356;DHT22;62514;48.112;11.566;2024-03-29T09:51:07;20.50;1.00
356;DHT22;62514;48.112;11.566;2024-03-29T09:53:37;20.50;1.00
356;DHT22;62514;48.112;11.566;2024-03-29T09:56:07;20.60;1.00
356;DHT22;62514;48.112;11.566;2024-03-29T09:58:34;20.40;1.00
356;DHT22;62514;48.112;11.566;2024-03-29T10:01:03;20.30;1.00
356;DHT22;62514;48.112;11.566;2024-03-29T10:03:43;20.20;1.00
356;DHT22;62514;48.112;11.566;2024-03-29T10:06:10;20.20;1.00
356;DHT22;62514;48.112;11.566;2024-03-29T10:08:40;20.00;1.00
356;DHT22;62514;48.112;11.566;2024-03-29T10:11:06;19.90;1.00
356;DHT22;62514;48.112;11.566;2024-03-29T10:13:32;19.90;1.00
356;DHT22;62514;48.112;11.566;2024-03-29T10:16:00;19.90;1.00
356;DHT22;62514;48.112;11.566;2024-03-29T10:18:29;20.10;1.00
356;DHT22;62514;48.112;11.566;2024-03-29T10:21:05;20.40;1.00
356;DHT22;62514;48.112;11.566;2024-03-29T10:23:34;20.50;1.00
356;DHT22;62514;48.112;11.566;2024-03-29T10:26:04;20.40;1.00
356;DHT22;62514;48.112;11.566;2024-03-29T10:28:35;20.40;1.00
356;DHT22;62514;48.112;11.566;2024-03-29T10:31:05;20.90;1.00
356;DHT22;62514;48.112;11.566;2024-03-29T10:33:32;20.80;1.00
356;DHT22;62514;48.112;11.566;2024-03-29T10:36:02;20.90;1.00
356;DHT22;62514;48.112;11.566;2024-03-29T10:38:32;21.10;1.00
356;DHT22;62514;48.112;11.566;2024-03-29T10:40:58;21.40;1.00
356;DHT22;62514;48.112;11.566;2024-03-29T10:43:24;21.50;1.00
356;DHT22;62514;48.112;11.566;2024-03-29T10:45:51;21.40;1.00
356;DHT22;62514;48.112;11.566;2024-03-29T10:48:21;21.70;1.00
356;DHT22;62514;48.112;11.566;2024-03-29T10:50:50;22.00;1.00
356;DHT22;62514;48.112;11.566;2024-03-29T10:53:17;22.30;1.00
356;DHT22;62514;48.112;11.566;2024-03-29T10:55:43;22.60;1.00
356;DHT22;62514;48.112;11.566;2024-03-29T10:58:11;23.30;1.00
356;DHT22;62514;48.112;11.566;2024-03-29T11:00:47;23.70;1.00
356;DHT22;62514;48.112;11.566;2024-03-29T11:03:45;23.90;1.00
356;DHT22;62514;48.112;11.566;2024-03-29T11:06:12;24.40;1.00
356;DHT22;62514;48.112;11.566;2024-03-29T11:08:40;23.50;1.00
356;DHT22;62514;48.112;11.566;2024-03-29T11:11:12;23.00;1.00
356;DHT22;62514;48.112;11.566;2024-03-29T11:16:14;22.00;1.00
356;DHT22;62514;48.112;11.566;2024-03-29T11:18:45;21.70;1.00
356;DHT22;62514;48.112;11.566;2024-03-29T11:21:14;21.40;1.00
356;DHT22;62514;48.112;11.566;2024-03-29T11:23:54;21.20;1.00
356;DHT22;62514;48.112;11.566;2024-03-29T11:26:21;21.40;1.00
356;DHT22;62514;48.112;11.566;2024-03-29T11:28:51;21.50;1.00
356;DHT22;62514;48.112;11.566;2024-03-29T11:31:17;22.00;1.00
356;DHT22;62514;48.112;11.566;2024-03-29T11:33:45;22.40;1.00
356;DHT22;62514;48.112;11.566;2024-03-29T11:36:13;22.60;1.00
356;DHT22;62514;48.112;11.566;2024-03-29T11:38:42;22.70;1.00
356;DHT22;62514;48.112;11.566;2024-03-29T11:41:18;22.90;1.00
356;DHT22;62514;48.112;11.566;2024-03-29T11:43:45;23.00;1.00
356;DHT22;62514;48.112;11.566;2024-03-29T11:46:15;23.00;1.00
356;DHT22;62514;48.112;11.566;2024-03-29T11:48:41;22.80;1.00
356;DHT22;62514;48.112;11.566;2024-03-29T11:51:11;22.80;1.00
356;DHT22;62514;48.112;11.566;2024-03-29T11:53:38;22.80;1.00
356;DHT22;62514;48.112;11.566;2024-03-29T11:56:04;22.80;1.00
356;DHT22;62514;48.112;11.566;2024-03-29T11:58:32;22.90;1.00
356;DHT22;62514;48.112;11.566;2024-03-29T12:00:59;22.90;1.00
356;DHT22;62514;48.112;11.566;2024-03-29T12:03:30;22.70;1.00
356;DHT22;62514;48.112;11.566;2024-03-29T12:06:00;23.00;1.00
356;DHT22;62514;48.112;11.566;2024-03-29T12:08:33;23.20;1.00
356;DHT22;62514;48.112;11.566;2024-03-29T12:11:01;23.50;1.00
356;DHT22;62514;48.112;11.566;2024-03-29T12:13:27;24.80;1.00
356;DHT22;62514;48.112;11.566;2024-03-29T12:15:54;25.60;1.00
356;DHT22;62514;48.112;11.566;2024-03-29T12:18:21;26.20;1.00
356;DHT22;62514;48.112;11.566;2024-03-29T12:20:51;27.30;1.00
356;DHT22;62514;48.112;11.566;2024-03-29T12:23:18;29.20;1.00
356;DHT22;62514;48.112;11.566;2024-03-29T12:25:45;29.60;1.00
356;DHT22;62514;48.112;11.566;2024-03-29T12:28:13;31.60;1.00
356;DHT22;62514;48.112;11.566;2024-03-29T12:30:45;31.20;11.40
356;DHT22;62514;48.112;11.566;2024-03-29T12:33:16;30.00;7.80
356;DHT22;62514;48.112;11.566;2024-03-29T12:35:43;31.30;6.00
356;DHT22;62514;48.112;11.566;2024-03-29T12:38:12;32.70;16.10
356;DHT22;62514;48.112;11.566;2024-03-29T12:40:40;33.80;27.50
356;DHT22;62514;48.112;11.566;2024-03-29T12:43:07;33.80;36.40
356;DHT22;62514;48.112;11.566;2024-03-29T12:45:34;34.40;39.90
356;DHT22;62514;48.112;11.566;2024-03-29T12:48:02;34.80;38.40
356;DHT22;62514;48.112;11.566;2024-03-29T12:50:32;33.60;51.30
356;DHT22;62514;48.112;11.566;2024-03-29T12:53:00;33.80;31.80
356;DHT22;62514;48.112;11.566;2024-03-29T12:55:28;34.70;38.40
356;DHT22;62514;48.112;11.566;2024-03-29T12:57:57;34.90;32.70
356;DHT22;62514;48.112;11.566;2024-03-29T13:00:23;35.30;44.80
356;DHT22;62514;48.112;11.566;2024-03-29T13:02:50;35.50;47.50
356;DHT22;62514;48.112;11.566;2024-03-29T13:05:16;34.90;47.80
356;DHT22;62514;48.112;11.566;2024-03-29T13:07:42;35.00;52.30
356;DHT22;62514;48.112;11.566;2024-03-29T13:10:08;34.70;44.70
356;DHT22;62514;48.112;11.566;2024-03-29T13:12:46;35.10;62.30
356;DHT22;62514;48.112;11.566;2024-03-29T13:15:24;33.70;52.60
356;DHT22;62514;48.112;11.566;2024-03-29T13:17:54;33.80;48.80
356;DHT22;62514;48.112;11.566;2024-03-29T13:20:22;33.30;53.50
356;DHT22;62514;48.112;11.566;2024-03-29T13:22:49;33.00;43.50
356;DHT22;62514;48.112;11.566;2024-03-29T13:25:16;33.20;43.80
356;DHT22;62514;48.112;11.566;2024-03-29T13:27:43;34.50;50.80
356;DHT22;62514;48.112;11.566;2024-03-29T13:30:11;35.80;62.90
356;DHT22;62514;48.112;11.566;2024-03-29T13:32:41;34.80;73.50
356;DHT22;62514;48.112;11.566;2024-03-29T13:35:09;34.70;63.10
356;DHT22;62514;48.112;11.566;2024-03-29T13:37:43;32.00;54.00
356;DHT22;62514;48.112;11.566;2024-03-29T13:40:10;31.80;41.70
356;DHT22;62514;48.112;11.566;2024-03-29T13:42:37;31.10;37.50
356;DHT22;62514;48.112;11.566;2024-03-29T13:45:04;30.70;40.00
356;DHT22;62514;48.112;11.566;2024-03-29T13:47:35;30.80;35.00
356;DHT22;62514;48.112;11.566;2024-03-29T13:50:01;32.00;41.90
356;DHT22;62514;48.112;11.566;2024-03-29T13:52:27;33.10;50.20
356;DHT22;62514;48.112;11.566;2024-03-29T13:54:53;33.10;58.50
356;DHT22;62514;48.112;11.566;2024-03-29T13:57:20;31.80;47.50
356;DHT22;62514;48.112;11.566;2024-03-29T13:59:46;30.60;37.00
356;DHT22;62514;48.112;11.566;2024-03-29T14:02:16;29.00;30.30
356;DHT22;62514;48.112;11.566;2024-03-29T14:04:44;27.70;24.20
356;DHT22;62514;48.112;11.566;2024-03-29T14:07:11;26.60;17.70
356;DHT22;62514;48.112;11.566;2024-03-29T14:09:38;26.30;12.60
356;DHT22;62514;48.112;11.566;2024-03-29T14:12:05;25.80;9.20
356;DHT22;62514;48.112;11.566;2024-03-29T14:14:31;25.70;8.70
356;DHT22;62514;48.112;11.566;2024-03-29T14:16:58;25.50;8.60
356;DHT22;62514;48.112;11.566;2024-03-29T14:19:28;24.90;8.50
356;DHT22;62514;48.112;11.566;2024-03-29T14:21:54;24.40;6.70
356;DHT22;62514;48.112;11.566;2024-03-29T14:24:20;24.10;3.20
356;DHT22;62514;48.112;11.566;2024-03-29T14:26:51;24.00;1.80
356;DHT22;62514;48.112;11.566;2024-03-29T14:29:17;24.00;3.80
356;DHT22;62514;48.112;11.566;2024-03-29T14:31:48;23.70;2.20
356;DHT22;62514;48.112;11.566;2024-03-29T14:34:14;23.50;1.00
356;DHT22;62514;48.112;11.566;2024-03-29T14:36:50;23.40;1.00
356;DHT22;62514;48.112;11.566;2024-03-29T14:39:31;23.20;1.00
356;DHT22;62514;48.112;11.566;2024-03-29T14:42:02;23.00;1.00
356;DHT22;62514;48.112;11.566;2024-03-29T14:44:41;23.20;1.00
356;DHT22;62514;48.112;11.566;2024-03-29T14:47:11;23.20;1.00
356;DHT22;62514;48.112;11.566;2024-03-29T14:49:39;23.40;1.00
356;DHT22;62514;48.112;11.566;2024-03-29T14:52:06;23.50;1.00
356;DHT22;62514;48.112;11.566;2024-03-29T15:09:07;23.00;1.00
356;DHT22;62514;48.112;11.566;2024-03-29T15:14:23;22.50;1.00
356;DHT22;62514;48.112;11.566;2024-03-29T15:16:49;22.60;1.00
356;DHT22;62514;48.112;11.566;2024-03-29T15:19:15;22.80;1.00
356;DHT22;62514;48.112;11.566;2024-03-29T15:21:42;22.90;1.00
356;DHT22;62514;48.112;11.566;2024-03-29T15:24:09;22.80;1.00
356;DHT22;62514;48.112;11.566;2024-03-29T15:26:35;22.80;1.00
356;DHT22;62514;48.112;11.566;2024-03-29T15:29:05;22.70;1.00
356;DHT22;62514;48.112;11.566;2024-03-29T15:34:06;22.40;1.00
356;DHT22;62514;48.112;11.566;2024-03-29T15:36:33;22.30;1.00
356;DHT22;62514;48.112;11.566;2024-03-29T15:39:00;22.00;1.00
356;DHT22;62514;48.112;11.566;2024-03-29T15:41:30;21.90;1.00
356;DHT22;62514;48.112;11.566;2024-03-29T15:43:57;21.80;1.00
356;DHT22;62514;48.112;11.566;2024-03-29T15:46:25;21.80;1.00
356;DHT22;62514;48.112;11.566;2024-03-29T15:48:51;21.70;1.00
356;DHT22;62514;48.112;11.566;2024-03-29T15:51:17;21.70;1.00
356;DHT22;62514;48.112;11.566;2024-03-29T15:53:43;21.60;1.00
356;DHT22;62514;48.112;11.566;2024-03-29T15:56:09;21.40;1.00
356;DHT22;62514;48.112;11.566;2024-03-29T15:58:36;21.40;1.00
356;DHT22;62514;48.112;11.566;2024-03-29T16:01:05;21.20;1.00
356;DHT22;62514;48.112;11.566;2024-03-29T16:03:32;21.00;1.00
356;DHT22;62514;48.112;11.566;2024-03-29T16:05:58;20.90;1.00
356;DHT22;62514;48.112;11.566;2024-03-29T16:08:24;20.80;1.00
356;DHT22;62514;48.112;11.566;2024-03-29T16:10:51;20.70;1.00
356;DHT22;62514;48.112;11.566;2024-03-29T16:13:18;20.70;1.00
356;DHT22;62514;48.112;11.566;2024-03-29T16:15:45;20.60;1.00
356;DHT22;62514;48.112;11.566;2024-03-29T16:18:12;20.50;1.00
356;DHT22;62514;48.112;11.566;2024-03-29T16:20:39;20.40;1.00
356;DHT22;62514;48.112;11.566;2024-03-29T16:23:05;20.30;1.00
356;DHT22;62514;48.112;11.566;2024-03-29T16:25:31;20.10;1.00
356;DHT22;62514;48.112;11.566;2024-03-29T16:27:57;20.00;1.00
356;DHT22;62514;48.112;11.566;2024-03-29T16:30:23;20.00;1.00
356;DHT22;62514;48.112;11.566;2024-03-29T16:32:50;19.80;1.00
356;DHT22;62514;48.112;11.566;2024-03-29T16:35:18;19.80;1.00
356;DHT22;62514;48.112;11.566;2024-03-29T16:37:47;19.70;1.00
356;DHT22;62514;48.112;11.566;2024-03-29T16:40:13;19.50;1.00
356;DHT22;62514;48.112;11.566;2024-03-29T16:42:40;19.50;1.00
356;DHT22;62514;48.112;11.566;2024-03-29T16:45:06;19.40;1.00